sensor_id;sensor_type;location;lat;lon;timestamp;P1;durP1;ratioP1;P2;durP2;ratioP2
4180;SDS011;2104;52.394;13.036;2023-04-29T00:00:35;17.15;;;11.60;;
4180;SDS011;2104;52.394;13.036;2023-04-29T00:03:00;18.00;;;11.98;;
4180;SDS011;2104;52.394;13.036;2023-04-29T00:05:26;19.20;;;13.05;;
4180;SDS011;2104;52.394;13.036;2023-04-29T00:07:51;19.27;;;12.80;;
4180;SDS011;2104;52.394;13.036;2023-04-29T00:10:17;18.98;;;12.80;;
4180;SDS011;2104;52.394;13.036;2023-04-29T00:12:43;18.85;;;12.65;;
4180;SDS011;2104;52.394;13.036;2023-04-29T00:15:08;18.55;;;13.82;;
4180;SDS011;2104;52.394;13.036;2023-04-29T00:17:34;18.50;;;12.55;;
4180;SDS011;2104;52.394;13.036;2023-04-29T00:20:00;19.27;;;12.07;;
4180;SDS011;2104;52.394;13.036;2023-04-29T00:22:26;18.38;;;12.10;;
4180;SDS011;2104;52.394;13.036;2023-04-29T00:24:52;18.38;;;13.23;;
4180;SDS011;2104;52.394;13.036;2023-04-29T00:27:17;19.48;;;13.57;;
4180;SDS011;2104;52.394;13.036;2023-04-29T00:29:43;20.35;;;14.27;;
4180;SDS011;2104;52.394;13.036;2023-04-29T00:32:08;18.30;;;12.93;;
4180;SDS011;2104;52.394;13.036;2023-04-29T00:34:34;19.98;;;12.95;;
4180;SDS011;2104;52.394;13.036;2023-04-29T00:36:59;18.08;;;12.60;;
4180;SDS011;2104;52.394;13.036;2023-04-29T00:39:25;23.80;;;13.70;;
4180;SDS011;2104;52.394;13.036;2023-04-29T00:41:51;20.83;;;14.75;;
4180;SDS011;2104;52.394;13.036;2023-04-29T00:44:16;20.95;;;14.02;;
4180;SDS011;2104;52.394;13.036;2023-04-29T00:46:42;20.40;;;13.98;;
4180;SDS011;2104;52.394;13.036;2023-04-29T00:49:08;19.80;;;13.85;;
4180;SDS011;2104;52.394;13.036;2023-04-29T00:51:34;21.58;;;14.48;;
4180;SDS011;2104;52.394;13.036;2023-04-29T00:54:01;20.50;;;14.90;;
4180;SDS011;2104;52.394;13.036;2023-04-29T00:56:28;21.80;;;16.10;;
4180;SDS011;2104;52.394;13.036;2023-04-29T00:58:56;26.40;;;19.20;;
4180;SDS011;2104;52.394;13.036;2023-04-29T01:01:22;22.10;;;15.48;;
4180;SDS011;2104;52.394;13.036;2023-04-29T01:03:48;25.38;;;19.00;;
4180;SDS011;2104;52.394;13.036;2023-04-29T01:11:52;26.33;;;16.58;;
4180;SDS011;2104;52.394;13.036;2023-04-29T01:14:22;22.83;;;16.02;;
4180;SDS011;2104;52.394;13.036;2023-04-29T01:16:50;25.75;;;17.15;;
4180;SDS011;2104;52.394;13.036;2023-04-29T01:19:36;24.35;;;18.60;;
4180;SDS011;2104;52.394;13.036;2023-04-29T01:22:04;32.88;;;20.02;;
4180;SDS011;2104;52.394;13.036;2023-04-29T01:24:29;27.40;;;19.42;;
4180;SDS011;2104;52.394;13.036;2023-04-29T01:26:55;23.48;;;16.65;;
4180;SDS011;2104;52.394;13.036;2023-04-29T01:29:34;25.88;;;19.02;;
4180;SDS011;2104;52.394;13.036;2023-04-29T01:32:45;30.05;;;19.40;;
4180;SDS011;2104;52.394;13.036;2023-04-29T01:41:12;25.42;;;18.33;;
4180;SDS011;2104;52.394;13.036;2023-04-29T01:43:40;28.80;;;19.13;;
4180;SDS011;2104;52.394;13.036;2023-04-29T01:46:10;25.42;;;17.95;;
4180;SDS011;2104;52.394;13.036;2023-04-29T01:48:37;28.95;;;19.45;;
4180;SDS011;2104;52.394;13.036;2023-04-29T01:51:03;31.42;;;19.10;;
4180;SDS011;2104;52.394;13.036;2023-04-29T01:53:30;27.35;;;17.83;;
4180;SDS011;2104;52.394;13.036;2023-04-29T01:55:56;28.05;;;18.00;;
4180;SDS011;2104;52.394;13.036;2023-04-29T01:58:22;25.35;;;17.35;;
4180;SDS011;2104;52.394;13.036;2023-04-29T02:00:47;28.13;;;17.48;;
4180;SDS011;2104;52.394;13.036;2023-04-29T02:03:12;36.17;;;22.40;;
4180;SDS011;2104;52.394;13.036;2023-04-29T02:05:38;33.10;;;22.52;;
4180;SDS011;2104;52.394;13.036;2023-04-29T02:08:03;32.72;;;22.00;;
4180;SDS011;2104;52.394;13.036;2023-04-29T02:10:31;41.20;;;24.70;;
4180;SDS011;2104;52.394;13.036;2023-04-29T02:12:57;39.63;;;22.98;;
4180;SDS011;2104;52.394;13.036;2023-04-29T02:15:25;33.70;;;20.80;;
4180;SDS011;2104;52.394;13.036;2023-04-29T02:17:51;28.10;;;21.23;;
4180;SDS011;2104;52.394;13.036;2023-04-29T02:20:17;34.70;;;23.08;;
4180;SDS011;2104;52.394;13.036;2023-04-29T02:22:42;42.85;;;21.77;;
4180;SDS011;2104;52.394;13.036;2023-04-29T02:25:08;32.15;;;21.95;;
4180;SDS011;2104;52.394;13.036;2023-04-29T02:27:34;33.17;;;21.67;;
4180;SDS011;2104;52.394;13.036;2023-04-29T02:29:59;33.20;;;21.90;;
4180;SDS011;2104;52.394;13.036;2023-04-29T02:32:24;32.78;;;22.80;;
4180;SDS011;2104;52.394;13.036;2023-04-29T02:34:50;32.33;;;23.58;;
4180;SDS011;2104;52.394;13.036;2023-04-29T02:37:15;43.42;;;24.73;;
4180;SDS011;2104;52.394;13.036;2023-04-29T02:39:41;30.90;;;21.60;;
4180;SDS011;2104;52.394;13.036;2023-04-29T02:42:06;34.90;;;22.80;;
4180;SDS011;2104;52.394;13.036;2023-04-29T02:44:32;29.05;;;22.30;;
4180;SDS011;2104;52.394;13.036;2023-04-29T02:46:57;39.88;;;24.90;;
4180;SDS011;2104;52.394;13.036;2023-04-29T02:49:23;35.97;;;25.17;;
4180;SDS011;2104;52.394;13.036;2023-04-29T02:51:48;42.83;;;27.20;;
4180;SDS011;2104;52.394;13.036;2023-04-29T02:54:14;43.35;;;26.70;;
4180;SDS011;2104;52.394;13.036;2023-04-29T02:56:40;37.42;;;24.35;;
4180;SDS011;2104;52.394;13.036;2023-04-29T02:59:06;43.15;;;26.80;;
4180;SDS011;2104;52.394;13.036;2023-04-29T03:01:31;43.67;;;25.48;;
4180;SDS011;2104;52.394;13.036;2023-04-29T03:03:57;39.72;;;26.45;;
4180;SDS011;2104;52.394;13.036;2023-04-29T03:06:22;50.80;;;27.63;;
4180;SDS011;2104;52.394;13.036;2023-04-29T03:08:48;43.47;;;28.77;;
4180;SDS011;2104;52.394;13.036;2023-04-29T03:11:13;43.13;;;27.75;;
4180;SDS011;2104;52.394;13.036;2023-04-29T03:13:38;47.75;;;30.40;;
4180;SDS011;2104;52.394;13.036;2023-04-29T03:16:04;46.58;;;29.40;;
4180;SDS011;2104;52.394;13.036;2023-04-29T03:18:30;52.80;;;29.98;;
4180;SDS011;2104;52.394;13.036;2023-04-29T03:20:56;49.15;;;30.98;;
4180;SDS011;2104;52.394;13.036;2023-04-29T03:23:21;55.20;;;30.30;;
4180;SDS011;2104;52.394;13.036;2023-04-29T03:25:47;44.67;;;28.75;;
4180;SDS011;2104;52.394;13.036;2023-04-29T03:28:12;48.63;;;29.92;;
4180;SDS011;2104;52.394;13.036;2023-04-29T03:30:39;53.53;;;31.05;;
4180;SDS011;2104;52.394;13.036;2023-04-29T03:33:04;52.67;;;31.80;;
4180;SDS011;2104;52.394;13.036;2023-04-29T03:35:29;54.47;;;33.33;;
4180;SDS011;2104;52.394;13.036;2023-04-29T03:37:55;54.28;;;31.88;;
4180;SDS011;2104;52.394;13.036;2023-04-29T03:40:20;56.67;;;31.98;;
4180;SDS011;2104;52.394;13.036;2023-04-29T03:42:46;59.50;;;32.13;;
4180;SDS011;2104;52.394;13.036;2023-04-29T03:45:11;59.90;;;34.40;;
4180;SDS011;2104;52.394;13.036;2023-04-29T03:47:38;53.45;;;32.08;;
4180;SDS011;2104;52.394;13.036;2023-04-29T03:50:04;53.38;;;30.70;;
4180;SDS011;2104;52.394;13.036;2023-04-29T03:52:30;51.08;;;31.52;;
4180;SDS011;2104;52.394;13.036;2023-04-29T03:54:55;56.42;;;31.75;;
4180;SDS011;2104;52.394;13.036;2023-04-29T03:57:21;58.53;;;32.35;;
4180;SDS011;2104;52.394;13.036;2023-04-29T03:59:47;51.75;;;31.92;;
4180;SDS011;2104;52.394;13.036;2023-04-29T04:02:14;54.28;;;32.95;;
4180;SDS011;2104;52.394;13.036;2023-04-29T04:04:40;57.10;;;31.60;;
4180;SDS011;2104;52.394;13.036;2023-04-29T04:07:06;60.63;;;31.98;;
4180;SDS011;2104;52.394;13.036;2023-04-29T04:09:31;49.35;;;30.23;;
4180;SDS011;2104;52.394;13.036;2023-04-29T04:11:57;62.92;;;34.40;;
4180;SDS011;2104;52.394;13.036;2023-04-29T04:14:22;61.83;;;34.55;;
4180;SDS011;2104;52.394;13.036;2023-04-29T04:16:48;60.08;;;33.33;;
4180;SDS011;2104;52.394;13.036;2023-04-29T04:19:14;56.53;;;31.42;;
4180;SDS011;2104;52.394;13.036;2023-04-29T04:21:40;58.92;;;33.15;;
4180;SDS011;2104;52.394;13.036;2023-04-29T04:24:06;56.38;;;33.65;;
4180;SDS011;2104;52.394;13.036;2023-04-29T04:26:32;58.50;;;33.03;;
4180;SDS011;2104;52.394;13.036;2023-04-29T04:28:57;60.00;;;33.33;;
4180;SDS011;2104;52.394;13.036;2023-04-29T04:31:23;65.68;;;32.83;;
4180;SDS011;2104;52.394;13.036;2023-04-29T04:33:49;60.35;;;32.92;;
4180;SDS011;2104;52.394;13.036;2023-04-29T04:36:14;64.53;;;36.10;;
4180;SDS011;2104;52.394;13.036;2023-04-29T04:38:40;57.63;;;33.47;;
4180;SDS011;2104;52.394;13.036;2023-04-29T04:41:05;64.97;;;35.42;;
4180;SDS011;2104;52.394;13.036;2023-04-29T04:43:32;54.65;;;32.30;;
4180;SDS011;2104;52.394;13.036;2023-04-29T04:45:57;62.45;;;34.50;;
4180;SDS011;2104;52.394;13.036;2023-04-29T04:48:23;61.70;;;33.13;;
4180;SDS011;2104;52.394;13.036;2023-04-29T04:50:48;61.95;;;34.50;;
4180;SDS011;2104;52.394;13.036;2023-04-29T04:53:13;58.85;;;32.58;;
4180;SDS011;2104;52.394;13.036;2023-04-29T04:55:39;58.38;;;32.60;;
4180;SDS011;2104;52.394;13.036;2023-04-29T04:58:05;59.70;;;32.47;;
4180;SDS011;2104;52.394;13.036;2023-04-29T05:00:30;60.92;;;33.20;;
4180;SDS011;2104;52.394;13.036;2023-04-29T05:02:55;63.42;;;35.10;;
4180;SDS011;2104;52.394;13.036;2023-04-29T05:05:21;63.80;;;34.92;;
4180;SDS011;2104;52.394;13.036;2023-04-29T05:07:46;57.17;;;34.20;;
4180;SDS011;2104;52.394;13.036;2023-04-29T05:10:12;55.45;;;31.92;;
4180;SDS011;2104;52.394;13.036;2023-04-29T05:12:37;61.53;;;33.75;;
4180;SDS011;2104;52.394;13.036;2023-04-29T05:15:02;63.15;;;33.38;;
4180;SDS011;2104;52.394;13.036;2023-04-29T05:17:28;60.75;;;32.60;;
4180;SDS011;2104;52.394;13.036;2023-04-29T05:19:54;62.72;;;33.13;;
4180;SDS011;2104;52.394;13.036;2023-04-29T05:22:20;65.32;;;33.45;;
4180;SDS011;2104;52.394;13.036;2023-04-29T05:24:45;61.13;;;31.20;;
4180;SDS011;2104;52.394;13.036;2023-04-29T05:27:12;62.30;;;32.63;;
4180;SDS011;2104;52.394;13.036;2023-04-29T05:29:38;64.93;;;34.58;;
4180;SDS011;2104;52.394;13.036;2023-04-29T05:32:03;69.72;;;34.70;;
4180;SDS011;2104;52.394;13.036;2023-04-29T05:34:29;62.50;;;32.95;;
4180;SDS011;2104;52.394;13.036;2023-04-29T05:36:54;66.78;;;34.47;;
4180;SDS011;2104;52.394;13.036;2023-04-29T05:39:21;72.25;;;35.15;;
4180;SDS011;2104;52.394;13.036;2023-04-29T05:41:46;69.85;;;33.90;;
4180;SDS011;2104;52.394;13.036;2023-04-29T05:44:12;62.72;;;33.65;;
4180;SDS011;2104;52.394;13.036;2023-04-29T05:46:37;65.85;;;32.78;;
4180;SDS011;2104;52.394;13.036;2023-04-29T05:49:03;60.47;;;31.92;;
4180;SDS011;2104;52.394;13.036;2023-04-29T05:51:28;58.60;;;31.90;;
4180;SDS011;2104;52.394;13.036;2023-04-29T05:53:53;59.03;;;30.52;;
4180;SDS011;2104;52.394;13.036;2023-04-29T05:56:19;58.92;;;30.20;;
4180;SDS011;2104;52.394;13.036;2023-04-29T05:58:46;63.58;;;29.75;;
4180;SDS011;2104;52.394;13.036;2023-04-29T06:01:11;58.78;;;31.13;;
4180;SDS011;2104;52.394;13.036;2023-04-29T06:03:37;56.40;;;28.67;;
4180;SDS011;2104;52.394;13.036;2023-04-29T06:06:02;65.20;;;29.80;;
4180;SDS011;2104;52.394;13.036;2023-04-29T06:08:28;54.00;;;29.65;;
4180;SDS011;2104;52.394;13.036;2023-04-29T06:10:53;55.35;;;27.95;;
4180;SDS011;2104;52.394;13.036;2023-04-29T06:13:19;63.70;;;30.80;;
4180;SDS011;2104;52.394;13.036;2023-04-29T06:15:45;63.35;;;30.27;;
4180;SDS011;2104;52.394;13.036;2023-04-29T06:18:10;62.72;;;29.33;;
4180;SDS011;2104;52.394;13.036;2023-04-29T06:20:36;63.08;;;29.73;;
4180;SDS011;2104;52.394;13.036;2023-04-29T06:23:01;58.25;;;28.58;;
4180;SDS011;2104;52.394;13.036;2023-04-29T06:25:27;63.03;;;29.20;;
4180;SDS011;2104;52.394;13.036;2023-04-29T06:27:52;61.10;;;28.75;;
4180;SDS011;2104;52.394;13.036;2023-04-29T06:30:18;62.33;;;27.70;;
4180;SDS011;2104;52.394;13.036;2023-04-29T06:32:43;56.20;;;28.02;;
4180;SDS011;2104;52.394;13.036;2023-04-29T06:35:09;68.68;;;30.30;;
4180;SDS011;2104;52.394;13.036;2023-04-29T06:37:34;54.58;;;25.80;;
4180;SDS011;2104;52.394;13.036;2023-04-29T06:40:00;61.33;;;29.98;;
4180;SDS011;2104;52.394;13.036;2023-04-29T06:42:25;62.97;;;27.88;;
4180;SDS011;2104;52.394;13.036;2023-04-29T06:44:50;56.83;;;27.08;;
4180;SDS011;2104;52.394;13.036;2023-04-29T06:47:16;59.38;;;26.98;;
4180;SDS011;2104;52.394;13.036;2023-04-29T06:49:41;54.30;;;26.73;;
4180;SDS011;2104;52.394;13.036;2023-04-29T06:52:07;44.42;;;24.23;;
4180;SDS011;2104;52.394;13.036;2023-04-29T06:54:33;49.58;;;25.55;;
4180;SDS011;2104;52.394;13.036;2023-04-29T06:56:58;48.90;;;26.58;;
4180;SDS011;2104;52.394;13.036;2023-04-29T06:59:24;49.22;;;23.70;;
4180;SDS011;2104;52.394;13.036;2023-04-29T07:01:49;51.05;;;25.38;;
4180;SDS011;2104;52.394;13.036;2023-04-29T07:04:16;55.63;;;26.15;;
4180;SDS011;2104;52.394;13.036;2023-04-29T07:06:41;55.55;;;28.48;;
4180;SDS011;2104;52.394;13.036;2023-04-29T07:09:10;48.85;;;27.02;;
4180;SDS011;2104;52.394;13.036;2023-04-29T07:11:37;54.72;;;28.13;;
4180;SDS011;2104;52.394;13.036;2023-04-29T07:14:03;60.47;;;30.35;;
4180;SDS011;2104;52.394;13.036;2023-04-29T07:16:28;53.20;;;27.58;;
4180;SDS011;2104;52.394;13.036;2023-04-29T07:18:54;56.50;;;29.85;;
4180;SDS011;2104;52.394;13.036;2023-04-29T07:21:19;59.40;;;29.80;;
4180;SDS011;2104;52.394;13.036;2023-04-29T07:23:45;60.00;;;28.50;;
4180;SDS011;2104;52.394;13.036;2023-04-29T07:26:14;60.78;;;29.55;;
4180;SDS011;2104;52.394;13.036;2023-04-29T07:28:40;58.33;;;29.50;;
4180;SDS011;2104;52.394;13.036;2023-04-29T07:31:06;61.85;;;29.17;;
4180;SDS011;2104;52.394;13.036;2023-04-29T07:33:32;54.55;;;28.05;;
4180;SDS011;2104;52.394;13.036;2023-04-29T07:35:58;58.88;;;27.70;;
4180;SDS011;2104;52.394;13.036;2023-04-29T07:38:23;57.42;;;27.85;;
4180;SDS011;2104;52.394;13.036;2023-04-29T07:40:48;52.35;;;27.05;;
4180;SDS011;2104;52.394;13.036;2023-04-29T07:43:14;53.60;;;27.38;;
4180;SDS011;2104;52.394;13.036;2023-04-29T07:45:39;50.60;;;28.33;;
4180;SDS011;2104;52.394;13.036;2023-04-29T07:48:05;63.38;;;28.80;;
4180;SDS011;2104;52.394;13.036;2023-04-29T07:50:34;50.55;;;26.42;;
4180;SDS011;2104;52.394;13.036;2023-04-29T07:53:00;49.78;;;26.95;;
4180;SDS011;2104;52.394;13.036;2023-04-29T07:55:27;50.35;;;27.02;;
4180;SDS011;2104;52.394;13.036;2023-04-29T07:57:56;49.58;;;24.80;;
4180;SDS011;2104;52.394;13.036;2023-04-29T08:00:22;48.53;;;25.50;;
4180;SDS011;2104;52.394;13.036;2023-04-29T08:02:50;52.92;;;24.23;;
4180;SDS011;2104;52.394;13.036;2023-04-29T08:05:16;44.53;;;23.48;;
4180;SDS011;2104;52.394;13.036;2023-04-29T08:07:41;43.97;;;24.85;;
4180;SDS011;2104;52.394;13.036;2023-04-29T08:10:07;50.10;;;24.08;;
4180;SDS011;2104;52.394;13.036;2023-04-29T08:12:33;44.22;;;24.73;;
4180;SDS011;2104;52.394;13.036;2023-04-29T08:14:58;43.97;;;24.42;;
4180;SDS011;2104;52.394;13.036;2023-04-29T08:17:24;42.75;;;24.55;;
4180;SDS011;2104;52.394;13.036;2023-04-29T08:19:49;49.17;;;25.27;;
4180;SDS011;2104;52.394;13.036;2023-04-29T08:22:14;46.13;;;24.55;;
4180;SDS011;2104;52.394;13.036;2023-04-29T08:24:40;48.80;;;25.35;;
4180;SDS011;2104;52.394;13.036;2023-04-29T08:27:06;47.60;;;25.35;;
4180;SDS011;2104;52.394;13.036;2023-04-29T08:29:32;46.75;;;24.35;;
4180;SDS011;2104;52.394;13.036;2023-04-29T08:31:58;49.47;;;23.92;;
4180;SDS011;2104;52.394;13.036;2023-04-29T08:34:23;52.90;;;25.83;;
4180;SDS011;2104;52.394;13.036;2023-04-29T08:36:49;48.17;;;24.30;;
4180;SDS011;2104;52.394;13.036;2023-04-29T08:39:14;58.03;;;25.55;;
4180;SDS011;2104;52.394;13.036;2023-04-29T08:41:40;48.97;;;25.17;;
4180;SDS011;2104;52.394;13.036;2023-04-29T08:44:08;45.25;;;25.17;;
4180;SDS011;2104;52.394;13.036;2023-04-29T08:46:33;56.53;;;26.73;;
4180;SDS011;2104;52.394;13.036;2023-04-29T08:48:58;59.90;;;28.23;;
4180;SDS011;2104;52.394;13.036;2023-04-29T08:51:27;67.85;;;27.60;;
4180;SDS011;2104;52.394;13.036;2023-04-29T08:53:53;57.50;;;27.63;;
4180;SDS011;2104;52.394;13.036;2023-04-29T08:56:20;65.72;;;29.05;;
4180;SDS011;2104;52.394;13.036;2023-04-29T08:58:46;72.57;;;30.70;;
4180;SDS011;2104;52.394;13.036;2023-04-29T09:01:12;71.82;;;33.88;;
4180;SDS011;2104;52.394;13.036;2023-04-29T09:03:55;81.72;;;33.85;;
4180;SDS011;2104;52.394;13.036;2023-04-29T09:06:25;70.65;;;31.90;;
4180;SDS011;2104;52.394;13.036;2023-04-29T09:08:50;81.85;;;33.95;;
4180;SDS011;2104;52.394;13.036;2023-04-29T09:11:16;78.45;;;34.92;;
4180;SDS011;2104;52.394;13.036;2023-04-29T09:13:42;73.80;;;33.03;;
4180;SDS011;2104;52.394;13.036;2023-04-29T09:16:11;73.07;;;32.65;;
4180;SDS011;2104;52.394;13.036;2023-04-29T09:18:49;74.85;;;34.53;;
4180;SDS011;2104;52.394;13.036;2023-04-29T09:23:42;66.13;;;30.95;;
4180;SDS011;2104;52.394;13.036;2023-04-29T09:26:07;66.68;;;28.83;;
4180;SDS011;2104;52.394;13.036;2023-04-29T09:28:33;56.05;;;28.05;;
4180;SDS011;2104;52.394;13.036;2023-04-29T09:30:59;51.42;;;25.33;;
4180;SDS011;2104;52.394;13.036;2023-04-29T09:33:30;54.47;;;27.50;;
4180;SDS011;2104;52.394;13.036;2023-04-29T09:35:56;59.92;;;31.52;;
4180;SDS011;2104;52.394;13.036;2023-04-29T09:38:21;53.30;;;27.48;;
4180;SDS011;2104;52.394;13.036;2023-04-29T09:40:47;55.78;;;28.42;;
4180;SDS011;2104;52.394;13.036;2023-04-29T09:43:13;57.85;;;29.20;;
4180;SDS011;2104;52.394;13.036;2023-04-29T09:45:46;55.58;;;28.52;;
4180;SDS011;2104;52.394;13.036;2023-04-29T09:48:12;57.58;;;27.48;;
4180;SDS011;2104;52.394;13.036;2023-04-29T09:50:39;52.10;;;30.27;;
4180;SDS011;2104;52.394;13.036;2023-04-29T09:53:07;57.75;;;29.30;;
4180;SDS011;2104;52.394;13.036;2023-04-29T09:56:18;56.50;;;28.50;;
4180;SDS011;2104;52.394;13.036;2023-04-29T09:58:29;52.20;;;28.63;;
4180;SDS011;2104;52.394;13.036;2023-04-29T10:01:00;48.97;;;27.17;;
4180;SDS011;2104;52.394;13.036;2023-04-29T10:03:33;50.67;;;28.50;;
4180;SDS011;2104;52.394;13.036;2023-04-29T10:06:00;50.33;;;26.95;;
4180;SDS011;2104;52.394;13.036;2023-04-29T10:08:27;52.58;;;29.75;;
4180;SDS011;2104;52.394;13.036;2023-04-29T10:10:53;49.25;;;28.20;;
4180;SDS011;2104;52.394;13.036;2023-04-29T10:13:24;58.05;;;30.50;;
4180;SDS011;2104;52.394;13.036;2023-04-29T10:15:59;55.63;;;30.10;;
4180;SDS011;2104;52.394;13.036;2023-04-29T10:18:29;62.30;;;31.48;;
4180;SDS011;2104;52.394;13.036;2023-04-29T10:21:00;64.57;;;30.40;;
4180;SDS011;2104;52.394;13.036;2023-04-29T10:23:26;63.40;;;30.38;;
4180;SDS011;2104;52.394;13.036;2023-04-29T10:25:52;68.57;;;33.30;;
4180;SDS011;2104;52.394;13.036;2023-04-29T10:28:19;68.70;;;32.40;;
4180;SDS011;2104;52.394;13.036;2023-04-29T10:30:49;69.60;;;33.78;;
4180;SDS011;2104;52.394;13.036;2023-04-29T10:33:16;72.37;;;32.37;;
4180;SDS011;2104;52.394;13.036;2023-04-29T10:35:42;59.72;;;31.30;;
4180;SDS011;2104;52.394;13.036;2023-04-29T10:38:10;66.15;;;32.90;;
4180;SDS011;2104;52.394;13.036;2023-04-29T10:40:43;69.00;;;33.13;;
4180;SDS011;2104;52.394;13.036;2023-04-29T10:43:12;64.05;;;32.42;;
4180;SDS011;2104;52.394;13.036;2023-04-29T10:45:39;64.32;;;32.50;;
4180;SDS011;2104;52.394;13.036;2023-04-29T10:48:07;61.47;;;33.75;;
4180;SDS011;2104;52.394;13.036;2023-04-29T10:53:12;64.60;;;33.47;;
4180;SDS011;2104;52.394;13.036;2023-04-29T10:55:41;55.80;;;33.10;;
4180;SDS011;2104;52.394;13.036;2023-04-29T11:01:01;53.35;;;31.15;;
4180;SDS011;2104;52.394;13.036;2023-04-29T11:06:12;57.95;;;30.75;;
4180;SDS011;2104;52.394;13.036;2023-04-29T11:08:39;54.35;;;31.25;;
4180;SDS011;2104;52.394;13.036;2023-04-29T11:11:05;53.42;;;31.55;;
4180;SDS011;2104;52.394;13.036;2023-04-29T11:13:36;48.47;;;29.50;;
4180;SDS011;2104;52.394;13.036;2023-04-29T11:16:03;48.25;;;30.02;;
4180;SDS011;2104;52.394;13.036;2023-04-29T11:18:32;41.45;;;26.02;;
4180;SDS011;2104;52.394;13.036;2023-04-29T11:23:30;46.10;;;26.95;;
4180;SDS011;2104;52.394;13.036;2023-04-29T11:25:56;39.47;;;27.83;;
4180;SDS011;2104;52.394;13.036;2023-04-29T11:28:22;38.47;;;26.70;;
4180;SDS011;2104;52.394;13.036;2023-04-29T11:30:51;40.38;;;25.60;;
4180;SDS011;2104;52.394;13.036;2023-04-29T11:33:18;35.67;;;24.42;;
4180;SDS011;2104;52.394;13.036;2023-04-29T11:35:44;41.35;;;25.25;;
4180;SDS011;2104;52.394;13.036;2023-04-29T11:38:09;35.13;;;24.50;;
4180;SDS011;2104;52.394;13.036;2023-04-29T11:40:35;36.35;;;24.60;;
4180;SDS011;2104;52.394;13.036;2023-04-29T11:43:01;34.63;;;23.63;;
4180;SDS011;2104;52.394;13.036;2023-04-29T11:45:26;36.42;;;22.73;;
4180;SDS011;2104;52.394;13.036;2023-04-29T11:47:52;33.65;;;22.40;;
4180;SDS011;2104;52.394;13.036;2023-04-29T11:50:17;34.83;;;21.80;;
4180;SDS011;2104;52.394;13.036;2023-04-29T11:52:44;35.72;;;22.40;;
4180;SDS011;2104;52.394;13.036;2023-04-29T11:55:11;32.58;;;21.80;;
4180;SDS011;2104;52.394;13.036;2023-04-29T11:57:37;32.75;;;23.73;;
4180;SDS011;2104;52.394;13.036;2023-04-29T12:00:04;31.98;;;23.23;;
4180;SDS011;2104;52.394;13.036;2023-04-29T12:02:30;36.28;;;24.42;;
4180;SDS011;2104;52.394;13.036;2023-04-29T12:04:56;30.92;;;21.65;;
4180;SDS011;2104;52.394;13.036;2023-04-29T12:07:22;34.60;;;23.05;;
4180;SDS011;2104;52.394;13.036;2023-04-29T12:09:48;35.85;;;23.70;;
4180;SDS011;2104;52.394;13.036;2023-04-29T12:12:14;37.42;;;23.48;;
4180;SDS011;2104;52.394;13.036;2023-04-29T12:14:40;33.70;;;22.20;;
4180;SDS011;2104;52.394;13.036;2023-04-29T12:17:06;31.95;;;21.85;;
4180;SDS011;2104;52.394;13.036;2023-04-29T12:19:32;32.15;;;22.10;;
4180;SDS011;2104;52.394;13.036;2023-04-29T12:22:01;35.70;;;22.02;;
4180;SDS011;2104;52.394;13.036;2023-04-29T12:24:27;34.88;;;21.77;;
4180;SDS011;2104;52.394;13.036;2023-04-29T12:26:56;28.75;;;19.80;;
4180;SDS011;2104;52.394;13.036;2023-04-29T12:29:24;23.60;;;17.80;;
4180;SDS011;2104;52.394;13.036;2023-04-29T12:31:50;24.75;;;15.82;;
4180;SDS011;2104;52.394;13.036;2023-04-29T12:34:15;19.63;;;15.30;;
4180;SDS011;2104;52.394;13.036;2023-04-29T12:36:41;20.38;;;15.00;;
4180;SDS011;2104;52.394;13.036;2023-04-29T12:39:09;25.00;;;16.98;;
4180;SDS011;2104;52.394;13.036;2023-04-29T12:41:35;27.00;;;15.25;;
4180;SDS011;2104;52.394;13.036;2023-04-29T12:44:04;21.58;;;14.45;;
4180;SDS011;2104;52.394;13.036;2023-04-29T12:46:33;21.17;;;13.73;;
4180;SDS011;2104;52.394;13.036;2023-04-29T12:49:01;21.33;;;14.57;;
4180;SDS011;2104;52.394;13.036;2023-04-29T12:51:28;22.15;;;13.73;;
4180;SDS011;2104;52.394;13.036;2023-04-29T12:54:05;23.67;;;12.27;;
4180;SDS011;2104;52.394;13.036;2023-04-29T12:56:31;18.60;;;12.35;;
4180;SDS011;2104;52.394;13.036;2023-04-29T12:59:07;19.25;;;12.10;;
4180;SDS011;2104;52.394;13.036;2023-04-29T13:01:33;15.52;;;11.50;;
4180;SDS011;2104;52.394;13.036;2023-04-29T13:03:59;16.70;;;8.80;;
4180;SDS011;2104;52.394;13.036;2023-04-29T13:06:25;14.35;;;10.38;;
4180;SDS011;2104;52.394;13.036;2023-04-29T13:08:51;14.93;;;8.70;;
4180;SDS011;2104;52.394;13.036;2023-04-29T13:11:16;8.57;;;7.15;;
4180;SDS011;2104;52.394;13.036;2023-04-29T13:13:42;12.40;;;7.65;;
4180;SDS011;2104;52.394;13.036;2023-04-29T13:16:07;12.13;;;7.78;;
4180;SDS011;2104;52.394;13.036;2023-04-29T13:18:32;12.45;;;7.53;;
4180;SDS011;2104;52.394;13.036;2023-04-29T13:20:58;15.32;;;10.27;;
4180;SDS011;2104;52.394;13.036;2023-04-29T13:23:24;18.25;;;9.95;;
4180;SDS011;2104;52.394;13.036;2023-04-29T13:25:49;16.55;;;10.18;;
4180;SDS011;2104;52.394;13.036;2023-04-29T13:28:16;16.33;;;10.02;;
4180;SDS011;2104;52.394;13.036;2023-04-29T13:30:41;15.80;;;10.48;;
4180;SDS011;2104;52.394;13.036;2023-04-29T13:33:07;17.60;;;10.65;;
4180;SDS011;2104;52.394;13.036;2023-04-29T13:35:32;17.70;;;9.63;;
4180;SDS011;2104;52.394;13.036;2023-04-29T13:38:00;19.35;;;10.93;;
4180;SDS011;2104;52.394;13.036;2023-04-29T13:40:26;17.10;;;10.27;;
4180;SDS011;2104;52.394;13.036;2023-04-29T13:42:51;14.27;;;9.35;;
4180;SDS011;2104;52.394;13.036;2023-04-29T13:45:17;16.08;;;9.27;;
4180;SDS011;2104;52.394;13.036;2023-04-29T13:47:42;11.80;;;8.40;;
4180;SDS011;2104;52.394;13.036;2023-04-29T13:50:08;15.90;;;9.23;;
4180;SDS011;2104;52.394;13.036;2023-04-29T13:52:34;17.17;;;9.82;;
4180;SDS011;2104;52.394;13.036;2023-04-29T13:54:59;15.13;;;9.48;;
4180;SDS011;2104;52.394;13.036;2023-04-29T13:57:25;25.73;;;10.57;;
4180;SDS011;2104;52.394;13.036;2023-04-29T13:59:51;13.20;;;9.43;;
4180;SDS011;2104;52.394;13.036;2023-04-29T14:02:19;16.73;;;8.93;;
4180;SDS011;2104;52.394;13.036;2023-04-29T14:04:45;14.32;;;9.75;;
4180;SDS011;2104;52.394;13.036;2023-04-29T14:07:10;16.88;;;9.82;;
4180;SDS011;2104;52.394;13.036;2023-04-29T14:09:35;14.55;;;9.13;;
4180;SDS011;2104;52.394;13.036;2023-04-29T14:12:01;17.23;;;8.88;;
4180;SDS011;2104;52.394;13.036;2023-04-29T14:14:26;18.17;;;9.60;;
4180;SDS011;2104;52.394;13.036;2023-04-29T14:16:51;21.58;;;10.27;;
4180;SDS011;2104;52.394;13.036;2023-04-29T14:19:17;20.17;;;10.02;;
4180;SDS011;2104;52.394;13.036;2023-04-29T14:21:42;14.82;;;9.85;;
4180;SDS011;2104;52.394;13.036;2023-04-29T14:24:08;17.55;;;9.98;;
4180;SDS011;2104;52.394;13.036;2023-04-29T14:26:33;15.95;;;9.23;;
4180;SDS011;2104;52.394;13.036;2023-04-29T14:28:58;16.05;;;8.77;;
4180;SDS011;2104;52.394;13.036;2023-04-29T14:31:27;15.32;;;8.25;;
4180;SDS011;2104;52.394;13.036;2023-04-29T14:33:54;14.43;;;7.80;;
4180;SDS011;2104;52.394;13.036;2023-04-29T14:36:22;17.27;;;7.20;;
4180;SDS011;2104;52.394;13.036;2023-04-29T14:38:47;11.63;;;6.80;;
4180;SDS011;2104;52.394;13.036;2023-04-29T14:41:13;11.05;;;6.53;;
4180;SDS011;2104;52.394;13.036;2023-04-29T14:43:38;12.60;;;7.25;;
4180;SDS011;2104;52.394;13.036;2023-04-29T14:46:05;12.02;;;7.35;;
4180;SDS011;2104;52.394;13.036;2023-04-29T14:48:30;11.88;;;6.38;;
4180;SDS011;2104;52.394;13.036;2023-04-29T14:50:56;9.68;;;6.32;;
4180;SDS011;2104;52.394;13.036;2023-04-29T14:53:21;9.48;;;6.63;;
4180;SDS011;2104;52.394;13.036;2023-04-29T14:55:50;16.67;;;8.02;;